Time;durP1;ratioP1;P1;durP2;ratioP2;P2;SDS_P1;SDS_P2;PMS_P1;PMS_P2;Temp;Humidity;BMP_temperature;BMP_pressure;BME280_temperature;BME280_humidity;BME280_pressure;Samples;Min_cycle;Max_cycle;Signal;HPM_P1;HPM_P2
2023/07/19 00:00:54;;;;;;;6.95;4.40;;;15.20;99.90;;;;;;5041095;28;20232;-80
2023/07/19 00:03:21;;;;;;;6.55;4.68;;;15.30;99.90;;;;;;5042116;28;20183;-79
2023/07/19 00:05:48;;;;;;;5.80;4.50;;;15.20;99.90;;;;;;5042795;28;20179;-79
2023/07/19 00:08:14;;;;;;;8.40;4.88;;;15.30;99.90;;;;;;5042170;28;20234;-80
2023/07/19 00:10:40;;;;;;;7.25;4.78;;;15.40;99.90;;;;;;5042567;28;20198;-80
2023/07/19 00:13:06;;;;;;;7.07;4.70;;;15.40;99.90;;;;;;5042160;28;20215;-80
2023/07/19 00:15:32;;;;;;;6.35;4.53;;;15.50;99.90;;;;;;5043674;28;20194;-80
2023/07/19 00:17:57;;;;;;;7.18;4.63;;;15.50;99.90;;;;;;5042219;28;20248;-79
2023/07/19 00:20:23;;;;;;;5.93;5.05;;;15.50;99.90;;;;;;5041194;28;20174;-79
2023/07/19 00:22:49;;;;;;;8.20;5.20;;;15.40;99.90;;;;;;5042110;28;20182;-80
2023/07/19 00:25:15;;;;;;;11.15;5.55;;;15.40;99.90;;;;;;5041793;28;20190;-80
2023/07/19 00:27:41;;;;;;;9.70;4.63;;;15.30;99.90;;;;;;5042725;28;20203;-80
2023/07/19 00:30:07;;;;;;;9.32;5.22;;;15.20;99.90;;;;;;5040799;28;20209;-80
2023/07/19 00:32:33;;;;;;;6.40;4.75;;;15.20;99.90;;;;;;5041687;28;20187;-80
2023/07/19 00:34:58;;;;;;;6.90;4.90;;;15.10;99.90;;;;;;5041376;28;20179;-79
2023/07/19 00:37:24;;;;;;;7.28;4.53;;;15.10;99.90;;;;;;5043383;28;20246;-79
2023/07/19 00:39:50;;;;;;;6.75;4.78;;;15.20;99.90;;;;;;5040991;28;20195;-80
2023/07/19 00:42:16;;;;;;;9.23;4.70;;;15.20;99.90;;;;;;5042811;28;20198;-80
2023/07/19 00:44:42;;;;;;;7.35;4.50;;;15.20;99.90;;;;;;5043032;28;20175;-79
2023/07/19 00:47:07;;;;;;;10.32;4.88;;;15.20;99.90;;;;;;5041170;28;20175;-79
2023/07/19 00:49:34;;;;;;;8.05;5.18;;;15.20;99.90;;;;;;5041499;28;20206;-79
2023/07/19 00:52:02;;;;;;;7.38;5.00;;;15.10;99.90;;;;;;5040462;28;20328;-80
2023/07/19 00:54:29;;;;;;;8.45;4.95;;;15.10;99.90;;;;;;5041344;28;20186;-79
2023/07/19 00:56:56;;;;;;;9.43;5.60;;;15.00;99.90;;;;;;5040669;28;20171;-80
2023/07/19 00:59:23;;;;;;;9.38;5.10;;;15.00;99.90;;;;;;5041387;28;20195;-80
2023/07/19 01:01:50;;;;;;;9.23;5.57;;;14.90;99.90;;;;;;5041539;28;20202;-80
2023/07/19 01:04:16;;;;;;;7.45;5.18;;;14.90;99.90;;;;;;5041142;28;20179;-80
2023/07/19 01:06:43;;;;;;;10.57;5.72;;;14.90;99.90;;;;;;5041005;28;20183;-79
2023/07/19 01:09:13;;;;;;;8.45;5.28;;;14.90;99.90;;;;;;5040936;28;20223;-79
2023/07/19 01:11:40;;;;;;;13.05;5.53;;;14.90;99.90;;;;;;5036999;28;20213;-80
2023/07/19 01:14:05;;;;;;;8.25;5.25;;;15.00;99.90;;;;;;5041606;28;20266;-80
2023/07/19 01:16:31;;;;;;;7.95;4.55;;;15.00;99.90;;;;;;5040793;28;20589;-80
2023/07/19 01:18:57;;;;;;;6.93;4.88;;;15.10;99.90;;;;;;5036180;28;20202;-80
2023/07/19 01:21:23;;;;;;;9.10;5.03;;;15.10;99.90;;;;;;5037351;28;20174;-79
2023/07/19 01:23:50;;;;;;;6.13;4.53;;;15.20;99.90;;;;;;5036880;28;20185;-79
2023/07/19 01:26:16;;;;;;;9.73;4.32;;;15.10;99.90;;;;;;5036744;28;20176;-79
2023/07/19 01:28:42;;;;;;;6.22;4.55;;;15.10;99.90;;;;;;5037123;28;20283;-79
2023/07/19 01:31:15;;;;;;;6.70;4.43;;;14.90;99.90;;;;;;5036926;28;20202;-80
2023/07/19 01:33:41;;;;;;;8.18;4.38;;;14.80;99.90;;;;;;5038020;28;20167;-79
2023/07/19 01:36:07;;;;;;;6.22;4.45;;;14.90;99.90;;;;;;5039140;28;20266;-79
2023/07/19 01:38:34;;;;;;;7.75;5.05;;;14.90;99.90;;;;;;5038804;28;20198;-79
2023/07/19 01:41:00;;;;;;;7.32;4.60;;;14.90;99.90;;;;;;5038643;28;20194;-80
2023/07/19 01:43:26;;;;;;;9.18;5.07;;;14.80;99.90;;;;;;5039623;28;20559;-79
2023/07/19 01:45:51;;;;;;;10.93;4.93;;;14.80;99.90;;;;;;5039028;28;20639;-80
2023/07/19 01:48:18;;;;;;;7.65;5.18;;;14.90;99.90;;;;;;5039409;28;20226;-80
2023/07/19 01:50:47;;;;;;;6.88;4.53;;;14.90;99.90;;;;;;5040655;28;20202;-80
2023/07/19 01:53:14;;;;;;;8.05;4.70;;;14.80;99.90;;;;;;5039188;28;20175;-79
2023/07/19 01:55:40;;;;;;;7.47;4.40;;;14.60;99.90;;;;;;5039655;28;20175;-79
2023/07/19 01:58:08;;;;;;;5.45;4.47;;;14.50;99.90;;;;;;5040243;28;20663;-79
2023/07/19 02:00:34;;;;;;;6.88;4.30;;;14.40;99.90;;;;;;5040343;28;20655;-79
2023/07/19 02:03:00;;;;;;;7.95;4.50;;;14.40;99.90;;;;;;5040068;28;20273;-80
2023/07/19 02:05:26;;;;;;;9.88;4.53;;;14.40;99.90;;;;;;5040130;28;20649;-80
2023/07/19 02:07:52;;;;;;;8.77;4.80;;;14.50;99.90;;;;;;5038394;28;20710;-80
2023/07/19 02:10:18;;;;;;;9.35;4.55;;;14.50;99.90;;;;;;5036117;28;20198;-80
2023/07/19 02:12:44;;;;;;;8.02;4.85;;;14.40;99.90;;;;;;5036255;28;20226;-80
2023/07/19 02:15:10;;;;;;;6.75;4.80;;;14.30;99.90;;;;;;5039866;28;20175;-80
2023/07/19 02:17:36;;;;;;;7.97;4.80;;;14.30;99.90;;;;;;5041680;28;20195;-80
2023/07/19 02:20:02;;;;;;;6.43;4.90;;;14.20;99.90;;;;;;5042314;28;20175;-80
2023/07/19 02:22:28;;;;;;;6.90;4.63;;;14.10;99.90;;;;;;5041086;28;20304;-80
2023/07/19 02:24:54;;;;;;;10.18;4.60;;;14.20;99.90;;;;;;5041187;28;20183;-80
2023/07/19 02:27:21;;;;;;;10.23;4.85;;;14.20;99.90;;;;;;5039876;28;20194;-80
2023/07/19 02:29:46;;;;;;;5.93;4.50;;;14.20;99.90;;;;;;5039669;28;20687;-80
2023/07/19 02:32:12;;;;;;;6.38;5.10;;;14.20;99.90;;;;;;5040041;28;20179;-79
2023/07/19 02:34:38;;;;;;;9.23;5.30;;;14.20;99.90;;;;;;5039544;28;20179;-79
2023/07/19 02:37:04;;;;;;;6.82;5.10;;;14.10;99.90;;;;;;5040631;28;20194;-80
2023/07/19 02:39:30;;;;;;;6.28;4.70;;;14.30;99.90;;;;;;5039338;28;20222;-80
2023/07/19 02:41:57;;;;;;;8.68;4.45;;;14.20;99.90;;;;;;5038841;28;20182;-79
2023/07/19 02:44:23;;;;;;;8.38;4.95;;;14.10;99.90;;;;;;5042323;28;20625;-79
2023/07/19 02:46:49;;;;;;;6.97;5.20;;;14.10;99.90;;;;;;5042223;28;20187;-79
2023/07/19 02:49:15;;;;;;;8.52;5.10;;;14.00;99.90;;;;;;5043340;28;20222;-80
2023/07/19 02:51:40;;;;;;;7.05;4.75;;;13.90;99.90;;;;;;5041193;28;20523;-79
2023/07/19 02:54:06;;;;;;;6.38;5.20;;;13.90;99.90;;;;;;5041245;28;20175;-79
2023/07/19 02:56:32;;;;;;;7.70;5.03;;;13.80;99.90;;;;;;5040610;28;20171;-79
2023/07/19 02:58:57;;;;;;;6.78;4.95;;;13.80;99.90;;;;;;5040363;28;20195;-79
2023/07/19 03:01:23;;;;;;;6.88;4.95;;;13.70;99.90;;;;;;5039497;28;20188;-79
2023/07/19 03:03:49;;;;;;;7.00;4.95;;;13.70;99.90;;;;;;5043578;28;20648;-79
2023/07/19 03:06:16;;;;;;;6.22;4.97;;;13.70;99.90;;;;;;5044873;28;20181;-80
2023/07/19 03:08:43;;;;;;;6.70;4.90;;;13.70;99.90;;;;;;5044239;28;20226;-79
2023/07/19 03:11:09;;;;;;;6.78;4.78;;;13.60;99.90;;;;;;5043819;28;20848;-79
2023/07/19 03:13:36;;;;;;;7.38;5.07;;;13.70;99.90;;;;;;5043404;28;20182;-79
2023/07/19 03:16:01;;;;;;;7.13;5.10;;;13.80;99.90;;;;;;5042659;28;20183;-79
2023/07/19 03:18:27;;;;;;;8.88;5.15;;;13.80;99.90;;;;;;5043321;28;20793;-79
2023/07/19 03:20:57;;;;;;;8.98;5.05;;;13.80;99.90;;;;;;5043628;28;20176;-79
2023/07/19 03:23:25;;;;;;;10.45;5.15;;;13.80;99.90;;;;;;5043699;28;20179;-79
2023/07/19 03:25:51;;;;;;;10.70;5.10;;;13.80;99.90;;;;;;5043808;28;20189;-79
2023/07/19 03:28:17;;;;;;;6.35;5.18;;;13.80;99.90;;;;;;5044992;28;20191;-79
2023/07/19 03:30:43;;;;;;;11.18;5.15;;;13.80;99.90;;;;;;5043190;28;20226;-79
2023/07/19 03:33:09;;;;;;;7.28;5.50;;;13.70;99.90;;;;;;5044436;28;20225;-79
2023/07/19 03:35:34;;;;;;;7.82;5.25;;;13.70;99.90;;;;;;5042553;28;20175;-79
2023/07/19 03:38:00;;;;;;;9.35;4.93;;;13.80;99.90;;;;;;5042750;28;20218;-79
2023/07/19 03:40:26;;;;;;;8.73;5.15;;;13.80;99.90;;;;;;5043332;28;20217;-79
2023/07/19 03:42:52;;;;;;;8.77;5.32;;;13.80;99.90;;;;;;5044248;28;20179;-79
2023/07/19 03:45:17;;;;;;;10.48;5.38;;;13.80;99.90;;;;;;5042057;28;20175;-79
2023/07/19 03:47:43;;;;;;;10.18;5.60;;;13.80;99.90;;;;;;5040885;28;20256;-79
2023/07/19 03:50:09;;;;;;;8.48;5.70;;;13.80;99.90;;;;;;5041329;28;20203;-80
2023/07/19 03:52:37;;;;;;;6.97;5.20;;;13.80;99.90;;;;;;5047424;28;20179;-80
2023/07/19 03:55:04;;;;;;;10.05;5.88;;;13.90;99.90;;;;;;5031904;28;20186;-79
2023/07/19 03:57:29;;;;;;;7.55;5.32;;;13.80;99.90;;;;;;5050258;28;20197;-80
2023/07/19 03:59:55;;;;;;;7.40;5.05;;;13.90;99.90;;;;;;5049190;28;20207;-79
2023/07/19 04:02:22;;;;;;;11.32;5.40;;;13.90;99.90;;;;;;5046187;28;20175;-79
2023/07/19 04:04:49;;;;;;;6.63;5.13;;;14.00;99.90;;;;;;5049181;28;20502;-79
2023/07/19 04:07:14;;;;;;;7.80;5.60;;;14.00;99.90;;;;;;5048012;28;20183;-80
2023/07/19 04:09:40;;;;;;;7.50;5.25;;;14.00;99.90;;;;;;5043646;28;20315;-80
2023/07/19 04:12:06;;;;;;;8.95;5.68;;;14.10;99.90;;;;;;5043493;28;20542;-80
2023/07/19 04:14:32;;;;;;;12.93;5.68;;;14.10;99.90;;;;;;5043409;28;20178;-80
2023/07/19 04:16:58;;;;;;;8.23;5.68;;;14.10;99.90;;;;;;5044365;28;20182;-80
2023/07/19 04:19:24;;;;;;;7.65;5.70;;;14.10;99.90;;;;;;5043266;28;20569;-80
2023/07/19 04:21:50;;;;;;;8.50;5.60;;;14.00;99.90;;;;;;5044986;28;20202;-80
2023/07/19 04:24:15;;;;;;;8.82;5.97;;;14.00;99.90;;;;;;5043534;28;20186;-80
2023/07/19 04:26:41;;;;;;;9.75;5.80;;;13.90;99.90;;;;;;5043478;28;20187;-79
2023/07/19 04:29:07;;;;;;;7.95;5.63;;;13.90;99.90;;;;;;5040892;28;20252;-80
2023/07/19 04:31:33;;;;;;;13.98;5.70;;;13.90;99.90;;;;;;5041755;28;20167;-80
2023/07/19 04:33:59;;;;;;;7.45;5.25;;;13.90;99.90;;;;;;5042902;28;20269;-79
2023/07/19 04:36:25;;;;;;;8.02;5.53;;;13.90;99.90;;;;;;5042124;28;20175;-80
2023/07/19 04:38:51;;;;;;;8.73;5.43;;;14.00;99.90;;;;;;5041666;28;20714;-79
2023/07/19 04:41:17;;;;;;;9.63;6.13;;;14.00;99.90;;;;;;5041900;28;20266;-79
2023/07/19 04:43:42;;;;;;;10.85;5.72;;;14.10;99.90;;;;;;5043698;28;20183;-80
2023/07/19 04:46:08;;;;;;;10.05;5.88;;;14.20;99.90;;;;;;5043773;28;20258;-79
2023/07/19 04:48:34;;;;;;;9.45;5.93;;;14.30;99.90;;;;;;5042597;28;20203;-79
2023/07/19 04:51:01;;;;;;;9.52;6.30;;;14.30;99.90;;;;;;5041566;28;20229;-79
2023/07/19 04:53:26;;;;;;;8.73;6.18;;;14.40;99.90;;;;;;5041182;28;20175;-80
2023/07/19 04:55:53;;;;;;;8.85;5.72;;;14.50;99.90;;;;;;5042706;28;20171;-80
2023/07/19 04:58:20;;;;;;;9.82;5.80;;;14.50;99.90;;;;;;5041519;28;20203;-80
2023/07/19 05:00:46;;;;;;;8.77;5.72;;;14.60;99.90;;;;;;5043363;28;20186;-80
2023/07/19 05:03:12;;;;;;;8.40;5.60;;;14.60;99.90;;;;;;5041982;28;20639;-79
2023/07/19 05:05:39;;;;;;;11.57;5.60;;;14.50;99.90;;;;;;5041017;28;20246;-80
2023/07/19 05:08:06;;;;;;;6.85;5.20;;;14.60;99.90;;;;;;5041023;28;20229;-79
2023/07/19 05:10:34;;;;;;;10.75;5.70;;;14.60;99.90;;;;;;5042112;28;20222;-79
2023/07/19 05:13:00;;;;;;;10.13;5.75;;;14.60;99.90;;;;;;5040817;28;20175;-79
2023/07/19 05:15:26;;;;;;;9.40;5.53;;;14.60;99.90;;;;;;5041833;28;20186;-80
2023/07/19 05:17:52;;;;;;;10.35;5.80;;;14.70;99.90;;;;;;5042040;28;20274;-79
2023/07/19 05:20:17;;;;;;;10.65;5.97;;;14.70;99.90;;;;;;5042942;28;20181;-80
2023/07/19 05:22:43;;;;;;;9.93;6.10;;;14.80;99.90;;;;;;5042497;28;20194;-80
2023/07/19 05:25:09;;;;;;;10.98;5.35;;;15.00;99.90;;;;;;5040607;28;20179;-79
2023/07/19 05:27:35;;;;;;;10.48;5.53;;;15.10;99.90;;;;;;5037169;28;20210;-79
2023/07/19 05:30:02;;;;;;;6.60;4.90;;;15.10;99.90;;;;;;5036518;28;20202;-80
2023/07/19 05:32:28;;;;;;;7.18;5.38;;;15.20;99.90;;;;;;5035948;28;20553;-80
2023/07/19 05:34:54;;;;;;;8.00;5.38;;;15.40;99.90;;;;;;5036013;28;20187;-80
2023/07/19 05:37:19;;;;;;;8.68;4.93;;;15.50;99.90;;;;;;5036498;28;20183;-80
2023/07/19 05:39:45;;;;;;;12.65;5.53;;;15.60;99.90;;;;;;5036192;28;20187;-80
2023/07/19 05:42:11;;;;;;;11.13;5.15;;;15.80;99.90;;;;;;5036633;28;20179;-80
2023/07/19 05:44:36;;;;;;;9.75;5.70;;;15.90;99.90;;;;;;5038171;28;20589;-80
2023/07/19 05:47:02;;;;;;;6.88;4.85;;;15.90;99.90;;;;;;5037629;28;20258;-79
2023/07/19 05:49:28;;;;;;;7.55;4.95;;;16.00;99.90;;;;;;5036605;28;20297;-79
2023/07/19 05:51:54;;;;;;;9.80;5.30;;;16.00;99.90;;;;;;5038037;28;20174;-80
2023/07/19 05:54:21;;;;;;;10.40;4.90;;;16.10;99.90;;;;;;5037744;28;20171;-80
2023/07/19 05:56:47;;;;;;;8.55;5.28;;;16.00;99.90;;;;;;5036252;28;20266;-80
2023/07/19 05:59:13;;;;;;;15.50;5.93;;;16.00;99.90;;;;;;5036745;28;20219;-80
2023/07/19 06:01:39;;;;;;;8.50;5.50;;;16.10;99.90;;;;;;5037151;28;20189;-80
2023/07/19 06:04:05;;;;;;;9.98;5.35;;;16.10;99.90;;;;;;5039293;28;20179;-80
2023/07/19 06:06:33;;;;;;;7.47;5.47;;;16.20;99.90;;;;;;5038145;28;20635;-80
2023/07/19 06:09:01;;;;;;;8.20;5.40;;;16.20;99.90;;;;;;5036772;28;20227;-79
2023/07/19 06:11:27;;;;;;;13.98;5.50;;;16.30;99.90;;;;;;5038873;28;20201;-79
2023/07/19 06:13:53;;;;;;;9.98;5.75;;;16.40;99.90;;;;;;5039149;28;20171;-79
2023/07/19 06:16:20;;;;;;;10.15;5.40;;;16.50;99.90;;;;;;5034174;28;20244;-79
2023/07/19 06:18:45;;;;;;;10.32;5.72;;;16.60;99.90;;;;;;5036176;28;20248;-79
2023/07/19 06:21:11;;;;;;;12.38;6.20;;;16.60;99.90;;;;;;5036939;28;20562;-79
2023/07/19 06:23:37;;;;;;;12.15;5.90;;;16.80;99.90;;;;;;5038224;28;20201;-79
2023/07/19 06:26:02;;;;;;;9.65;5.45;;;17.00;99.90;;;;;;5042897;28;20206;-80
2023/07/19 06:28:28;;;;;;;9.90;6.38;;;17.10;99.90;;;;;;5043233;28;20206;-80
2023/07/19 06:30:58;;;;;;;7.72;5.50;;;17.20;99.90;;;;;;5043940;28;20256;-80
2023/07/19 06:33:24;;;;;;;9.27;5.82;;;17.40;99.90;;;;;;5044111;28;20172;-80
2023/07/19 06:35:51;;;;;;;12.52;5.60;;;17.50;99.90;;;;;;5042343;28;20643;-80
2023/07/19 06:38:16;;;;;;;12.85;6.15;;;17.40;99.90;;;;;;5041954;28;20633;-79
2023/07/19 06:40:42;;;;;;;10.35;5.38;;;17.50;99.90;;;;;;5038310;28;20273;-79
2023/07/19 06:43:09;;;;;;;14.48;6.30;;;17.60;99.90;;;;;;5038570;28;20266;-79
2023/07/19 06:45:35;;;;;;;8.35;5.03;;;17.60;99.90;;;;;;5038004;28;20550;-79
2023/07/19 06:48:01;;;;;;;8.30;4.60;;;17.60;99.90;;;;;;5038112;28;20257;-79
2023/07/19 06:50:27;;;;;;;13.45;5.05;;;17.70;99.90;;;;;;5037018;28;20214;-80
2023/07/19 06:52:52;;;;;;;11.50;5.05;;;17.80;99.90;;;;;;5037032;28;20184;-79
2023/07/19 06:55:18;;;;;;;9.20;4.82;;;17.70;99.90;;;;;;5038485;28;20206;-79
2023/07/19 06:57:44;;;;;;;11.20;5.53;;;17.70;99.90;;;;;;5038395;28;20217;-79
2023/07/19 07:00:10;;;;;;;8.00;4.97;;;17.60;99.90;;;;;;5036924;28;20597;-79
2023/07/19 07:02:37;;;;;;;9.80;5.40;;;17.50;99.90;;;;;;5037295;28;20179;-79
2023/07/19 07:05:03;;;;;;;11.15;5.68;;;17.40;99.90;;;;;;5037372;28;20179;-79
2023/07/19 07:07:28;;;;;;;13.93;5.50;;;17.20;99.90;;;;;;5036811;28;20580;-79
2023/07/19 07:09:54;;;;;;;9.07;5.80;;;17.20;99.90;;;;;;5036698;28;20203;-80
2023/07/19 07:12:20;;;;;;;8.90;5.18;;;17.20;99.90;;;;;;5036597;28;20175;-79
2023/07/19 07:14:46;;;;;;;9.43;5.78;;;17.10;99.90;;;;;;5038659;28;20538;-79
2023/07/19 07:17:11;;;;;;;10.20;6.10;;;17.10;99.90;;;;;;5038683;28;20646;-79
2023/07/19 07:19:37;;;;;;;9.82;5.13;;;17.10;99.90;;;;;;5038177;28;20175;-79
2023/07/19 07:22:03;;;;;;;9.38;5.57;;;17.00;99.90;;;;;;5037408;28;20297;-79
2023/07/19 07:24:29;;;;;;;9.65;5.90;;;17.00;99.90;;;;;;5036613;28;20282;-79
2023/07/19 07:26:54;;;;;;;9.50;5.47;;;17.10;99.90;;;;;;5037969;28;20538;-79
2023/07/19 07:29:20;;;;;;;10.40;5.72;;;17.20;99.90;;;;;;5037959;28;20191;-79
2023/07/19 07:31:46;;;;;;;9.25;5.50;;;17.20;99.90;;;;;;5036281;28;20203;-80
2023/07/19 07:34:12;;;;;;;10.55;6.40;;;17.20;99.90;;;;;;5039540;28;20168;-80
2023/07/19 07:36:38;;;;;;;10.88;6.07;;;17.20;99.90;;;;;;5039481;28;20175;-80
2023/07/19 07:39:05;;;;;;;13.38;6.28;;;17.20;99.90;;;;;;5038742;28;20740;-80
2023/07/19 07:41:32;;;;;;;11.80;6.18;;;17.20;99.90;;;;;;5038281;28;20202;-80
2023/07/19 07:43:57;;;;;;;12.70;6.70;;;17.10;99.90;;;;;;5038706;28;20258;-80
2023/07/19 07:46:24;;;;;;;9.23;6.43;;;17.00;99.90;;;;;;5038422;28;20206;-80
2023/07/19 07:48:50;;;;;;;11.30;7.75;;;17.10;99.90;;;;;;5037781;28;20694;-80
2023/07/19 07:51:16;;;;;;;10.75;6.90;;;17.10;99.90;;;;;;5037820;28;20203;-80
2023/07/19 07:53:42;;;;;;;13.05;7.45;;;17.20;99.90;;;;;;5037251;28;20233;-80
2023/07/19 07:56:07;;;;;;;9.93;6.60;;;17.20;99.90;;;;;;5038844;28;20631;-80
2023/07/19 07:58:33;;;;;;;9.73;6.82;;;17.30;99.90;;;;;;5038368;28;20195;-80
2023/07/19 08:01:00;;;;;;;10.48;6.55;;;17.10;99.90;;;;;;5037818;28;20183;-80
2023/07/19 08:03:25;;;;;;;11.75;6.78;;;17.10;99.90;;;;;;5038580;28;20183;-80
2023/07/19 08:05:54;;;;;;;9.65;5.50;;;17.10;99.90;;;;;;5038260;28;20253;-80
2023/07/19 08:08:19;;;;;;;8.13;6.25;;;17.10;99.90;;;;;;5039253;28;20646;-80
2023/07/19 08:10:45;;;;;;;15.25;7.40;;;17.20;99.90;;;;;;5039004;28;20214;-80
2023/07/19 08:13:11;;;;;;;7.30;5.38;;;17.10;99.90;;;;;;5039351;28;20175;-80
2023/07/19 08:15:37;;;;;;;10.68;6.10;;;17.30;99.90;;;;;;5038395;28;20252;-78
2023/07/19 08:18:03;;;;;;;13.77;6.30;;;17.50;99.90;;;;;;5037392;28;20722;-79
2023/07/19 08:20:29;;;;;;;11.95;6.13;;;17.50;99.90;;;;;;5037447;28;20224;-79
2023/07/19 08:22:55;;;;;;;7.07;5.30;;;17.60;99.90;;;;;;5036218;28;20257;-78
2023/07/19 08:25:21;;;;;;;10.10;5.25;;;17.60;99.90;;;;;;5036270;28;20179;-78
2023/07/19 08:27:48;;;;;;;9.52;5.60;;;17.50;99.90;;;;;;5035352;28;20613;-78
2023/07/19 08:30:17;;;;;;;7.13;5.35;;;17.40;99.90;;;;;;5035529;28;20574;-77
2023/07/19 08:32:47;;;;;;;13.82;5.13;;;17.30;99.90;;;;;;5034617;28;20598;-77
2023/07/19 08:35:28;;;;;;;10.23;5.00;;;17.30;99.90;;;;;;5034428;28;20178;-77
2023/07/19 08:37:54;;;;;;;7.57;4.60;;;17.20;99.90;;;;;;5034329;28;20211;-78
2023/07/19 08:40:19;;;;;;;7.65;5.28;;;17.20;99.90;;;;;;5033596;28;20233;-77
2023/07/19 08:42:45;;;;;;;8.00;4.53;;;17.10;99.90;;;;;;5035982;28;20183;-77
2023/07/19 08:45:12;;;;;;;9.85;5.13;;;17.10;99.90;;;;;;5034266;28;20183;-77
2023/07/19 08:47:39;;;;;;;10.20;5.07;;;17.20;99.90;;;;;;5034011;28;20203;-77
2023/07/19 08:50:05;;;;;;;9.68;5.15;;;17.20;99.90;;;;;;5033283;28;20203;-77
2023/07/19 08:52:32;;;;;;;9.02;5.43;;;17.30;99.90;;;;;;5033293;28;20176;-77
2023/07/19 08:54:59;;;;;;;8.93;5.57;;;17.40;99.90;;;;;;5033381;28;20269;-77
2023/07/19 08:57:25;;;;;;;12.50;6.05;;;17.60;99.90;;;;;;5034594;28;20262;-77
2023/07/19 08:59:51;;;;;;;11.57;5.70;;;17.60;99.90;;;;;;5034466;28;20258;-77
2023/07/19 09:02:16;;;;;;;10.55;5.55;;;17.60;99.90;;;;;;5033303;28;20183;-76
2023/07/19 09:05:09;;;;;;;8.63;5.53;;;17.70;99.90;;;;;;5034972;28;20195;-77
2023/07/19 09:07:36;;;;;;;11.52;5.57;;;17.80;99.90;;;;;;5037316;28;20218;-77
2023/07/19 09:10:03;;;;;;;8.75;4.78;;;18.20;99.90;;;;;;5054350;28;20236;-76
2023/07/19 09:12:37;;;;;;;9.38;5.60;;;18.30;99.90;;;;;;5052875;28;20670;-77
2023/07/19 09:15:05;;;;;;;9.32;4.93;;;18.30;99.90;;;;;;5053093;28;20185;-76
2023/07/19 09:17:35;;;;;;;8.82;4.82;;;18.30;99.90;;;;;;5054330;28;20662;-76
2023/07/19 09:20:04;;;;;;;9.10;5.57;;;18.10;99.90;;;;;;5053404;28;20222;-76
2023/07/19 09:22:30;;;;;;;12.07;5.72;;;18.00;99.90;;;;;;5053424;28;20209;-76
2023/07/19 09:25:01;;;;;;;11.23;6.05;;;17.90;99.90;;;;;;5053515;28;20651;-77
2023/07/19 09:27:28;;;;;;;12.77;5.75;;;17.80;99.90;;;;;;5053475;28;20178;-77
2023/07/19 09:29:54;;;;;;;11.55;5.63;;;17.60;99.90;;;;;;5053857;28;20202;-78
2023/07/19 09:32:20;;;;;;;11.77;5.65;;;17.60;99.90;;;;;;5054813;28;20198;-78
2023/07/19 09:34:46;;;;;;;11.85;5.45;;;17.50;99.90;;;;;;5053446;28;20213;-78
2023/07/19 09:37:12;;;;;;;13.45;5.90;;;17.50;99.90;;;;;;5053236;28;20234;-77
2023/07/19 09:39:40;;;;;;;12.15;6.03;;;17.50;99.90;;;;;;5033752;28;20175;-78
2023/07/19 09:42:08;;;;;;;9.48;5.57;;;17.50;99.90;;;;;;5033319;28;20179;-77
2023/07/19 09:44:36;;;;;;;15.68;6.63;;;17.50;99.90;;;;;;5033274;28;20232;-77
2023/07/19 09:47:02;;;;;;;16.63;7.07;;;17.40;99.90;;;;;;5033566;28;20185;-78
2023/07/19 09:49:28;;;;;;;13.27;8.07;;;17.30;99.90;;;;;;5034302;28;20199;-78
2023/07/19 09:51:56;;;;;;;25.48;13.82;;;17.30;99.90;;;;;;5034065;28;20262;-78
2023/07/19 09:54:24;;;;;;;13.43;8.02;;;17.20;99.90;;;;;;5034127;28;20256;-77
2023/07/19 09:56:50;;;;;;;14.80;7.75;;;17.20;99.90;;;;;;5035075;28;20197;-78
2023/07/19 09:59:35;;;;;;;17.00;7.88;;;17.10;99.90;;;;;;5035070;28;20187;-78
2023/07/19 10:02:02;;;;;;;14.60;8.27;;;17.10;99.90;;;;;;5034518;28;20159;-78
2023/07/19 10:04:33;;;;;;;16.23;8.13;;;17.20;99.90;;;;;;5033402;28;20178;-78
2023/07/19 10:07:03;;;;;;;14.35;8.45;;;17.30;99.90;;;;;;5034605;28;20160;-78
2023/07/19 10:09:35;;;;;;;12.32;7.93;;;17.40;99.90;;;;;;5035583;28;20585;-78
2023/07/19 10:12:05;;;;;;;12.95;8.50;;;17.40;99.90;;;;;;5033631;28;20254;-78
2023/07/19 10:14:32;;;;;;;14.05;7.85;;;17.50;99.90;;;;;;5033649;28;20185;-78
2023/07/19 10:16:59;;;;;;;14.27;7.78;;;17.60;99.90;;;;;;5035580;28;20171;-78
2023/07/19 10:19:26;;;;;;;11.48;7.93;;;17.60;99.90;;;;;;5033852;28;20191;-78
2023/07/19 10:22:08;;;;;;;14.27;7.53;;;17.60;99.90;;;;;;5035697;28;20178;-78
2023/07/19 10:24:38;;;;;;;13.73;8.10;;;17.60;99.90;;;;;;5034140;28;20166;-78
2023/07/19 10:27:06;;;;;;;14.52;7.78;;;17.60;99.90;;;;;;5035167;28;20246;-78
2023/07/19 10:30:03;;;;;;;11.68;7.68;;;17.70;99.90;;;;;;5033790;28;20206;-78
2023/07/19 10:32:29;;;;;;;17.42;7.57;;;17.70;99.90;;;;;;5034153;28;20198;-78
2023/07/19 10:34:55;;;;;;;10.90;6.47;;;17.70;99.90;;;;;;5034010;28;20167;-78
2023/07/19 10:37:22;;;;;;;12.57;7.00;;;17.80;99.90;;;;;;5035757;28;20687;-77
2023/07/19 10:39:48;;;;;;;15.63;7.28;;;17.90;99.90;;;;;;5034206;28;20228;-78
2023/07/19 10:42:14;;;;;;;12.75;5.50;;;18.20;99.90;;;;;;5034615;28;20190;-78
2023/07/19 10:44:41;;;;;;;10.63;6.50;;;18.70;99.90;;;;;;5035891;28;20698;-77
2023/07/19 10:47:07;;;;;;;12.38;6.30;;;18.90;99.90;;;;;;5035006;28;20636;-76
2023/07/19 10:49:33;;;;;;;12.13;6.30;;;18.80;99.90;;;;;;5031943;28;20199;-76
2023/07/19 10:51:59;;;;;;;15.15;6.15;;;18.70;99.90;;;;;;5033471;28;20186;-77
2023/07/19 10:54:25;;;;;;;12.23;6.22;;;18.80;99.90;;;;;;5033604;28;20187;-76
2023/07/19 10:56:53;;;;;;;14.88;6.72;;;19.10;99.90;;;;;;5033370;28;20648;-76
2023/07/19 10:59:20;;;;;;;11.15;6.72;;;19.20;99.90;;;;;;5032961;28;20195;-76
2023/07/19 11:01:49;;;;;;;12.15;6.63;;;19.30;99.90;;;;;;5032051;28;20176;-76
2023/07/19 11:04:18;;;;;;;11.35;5.95;;;19.50;99.90;;;;;;5035208;28;20180;-76
2023/07/19 11:07:01;;;;;;;14.43;6.78;;;19.70;99.90;;;;;;5036933;28;20670;-76
2023/07/19 11:09:27;;;;;;;16.15;5.55;;;19.90;99.90;;;;;;5035433;28;20218;-77
2023/07/19 11:11:53;;;;;;;9.98;6.30;;;20.10;99.90;;;;;;5037240;28;20198;-76
2023/07/19 11:14:32;;;;;;;10.35;5.93;;;20.30;99.90;;;;;;5035455;28;20213;-76
2023/07/19 11:16:59;;;;;;;14.32;6.53;;;20.40;99.90;;;;;;5035537;28;20194;-76
2023/07/19 11:19:36;;;;;;;11.10;5.55;;;20.70;99.90;;;;;;5036764;28;20222;-75
2023/07/19 11:22:03;;;;;;;10.82;5.22;;;20.80;99.90;;;;;;5035611;28;20175;-76
2023/07/19 11:24:39;;;;;;;9.30;4.97;;;21.00;99.90;;;;;;5035737;28;20185;-76
2023/07/19 11:27:06;;;;;;;9.45;5.35;;;21.10;99.90;;;;;;5037715;28;20225;-76
2023/07/19 11:29:33;;;;;;;7.50;4.40;;;21.10;99.90;;;;;;5037307;28;20222;-76
2023/07/19 11:32:21;;;;;;;9.02;4.80;;;21.10;99.90;;;;;;5037577;28;20195;-76
2023/07/19 11:35:05;;;;;;;10.02;5.35;;;21.20;99.90;;;;;;5035841;28;20174;-76
2023/07/19 11:37:33;;;;;;;10.90;5.60;;;21.10;99.90;;;;;;5036837;28;20201;-76
2023/07/19 11:40:05;;;;;;;9.65;5.28;;;21.20;99.90;;;;;;5035307;28;20303;-76
2023/07/19 11:42:40;;;;;;;9.90;4.72;;;21.50;99.90;;;;;;5034994;28;20172;-76
2023/07/19 11:45:13;;;;;;;7.90;4.60;;;21.80;99.90;;;;;;5035124;28;20181;-76
2023/07/19 11:47:40;;;;;;;10.85;5.00;;;22.20;99.90;;;;;;5035432;28;20278;-76
2023/07/19 11:50:07;;;;;;;10.73;5.03;;;22.20;99.90;;;;;;5034830;28;20195;-76
2023/07/19 11:52:47;;;;;;;9.27;4.60;;;22.30;99.90;;;;;;5035129;28;20164;-76
2023/07/19 11:55:17;;;;;;;11.93;5.03;;;22.40;99.90;;;;;;5035077;28;20179;-76
2023/07/19 11:57:44;;;;;;;9.05;4.88;;;22.90;99.90;;;;;;5034509;28;20199;-76
2023/07/19 12:00:14;;;;;;;10.75;5.65;;;22.90;1.00;;;;;;5034914;28;20186;-76
2023/07/19 12:02:43;;;;;;;8.57;4.28;;;22.80;99.90;;;;;;5036532;28;20151;-76
2023/07/19 12:05:09;;;;;;;11.13;5.03;;;22.50;99.90;;;;;;5036505;28;20686;-76
2023/07/19 12:07:35;;;;;;;9.90;4.60;;;22.30;1.00;;;;;;5034393;28;20218;-77
2023/07/19 12:10:03;;;;;;;9.23;4.40;;;22.30;1.00;;;;;;5034596;28;20261;-76
2023/07/19 12:12:33;;;;;;;10.05;4.53;;;22.20;1.00;;;;;;5035544;28;20553;-76
2023/07/19 12:15:06;;;;;;;11.93;4.68;;;22.20;1.00;;;;;;5036830;28;20171;-76
2023/07/19 12:17:34;;;;;;;9.25;4.70;;;22.10;99.90;;;;;;5035166;28;20799;-76
2023/07/19 12:20:00;;;;;;;8.68;4.38;;;22.20;1.00;;;;;;5035366;28;20187;-75
2023/07/19 12:22:29;;;;;;;9.50;4.65;;;22.10;1.00;;;;;;5035283;28;20175;-75
2023/07/19 12:24:56;;;;;;;9.98;4.18;;;22.00;1.00;;;;;;5037132;28;20250;-75
2023/07/19 12:27:22;;;;;;;7.82;4.68;;;22.20;1.00;;;;;;5036663;28;20661;-75
2023/07/19 12:29:48;;;;;;;10.27;4.68;;;22.10;1.00;;;;;;5036259;28;20289;-75
2023/07/19 12:32:14;;;;;;;10.18;4.25;;;22.20;1.00;;;;;;5036078;28;20191;-76
2023/07/19 12:34:41;;;;;;;14.18;4.45;;;22.30;1.00;;;;;;5034882;28;20632;-76
2023/07/19 12:37:07;;;;;;;8.98;5.03;;;22.30;1.00;;;;;;5034629;28;20179;-75
2023/07/19 12:39:33;;;;;;;9.20;4.45;;;22.20;1.00;;;;;;5034533;28;20211;-75
2023/07/19 12:41:59;;;;;;;9.57;4.30;;;22.60;1.00;;;;;;5034959;28;20179;-76